Time;durP1;ratioP1;P1;durP2;ratioP2;P2;SDS_P1;SDS_P2;PMS_P1;PMS_P2;Temp;Humidity;BMP_temperature;BMP_pressure;BME280_temperature;BME280_humidity;BME280_pressure;Samples;Min_cycle;Max_cycle;Signal;HPM_P1;HPM_P2
2022/05/25 00:02:06;;;;;;;6.28;3.85;;;;;;;;;;4979992;28;20045;-75
2022/05/25 00:04:32;;;;;;;5.20;3.90;;;;;;;;;;4973149;28;20125;-75
2022/05/25 00:06:59;;;;;;;6.40;4.43;;;;;;;;;;4967199;28;20113;-75
2022/05/25 00:09:24;;;;;;;9.30;5.22;;;;;;;;;;4971005;28;20043;-75
2022/05/25 00:11:51;;;;;;;9.50;4.63;;;;;;;;;;4969483;28;20030;-74
2022/05/25 00:14:17;;;;;;;11.65;4.63;;;;;;;;;;4970811;28;20092;-75
2022/05/25 00:16:43;;;;;;;10.10;4.97;;;;;;;;;;4974954;28;20027;-74
2022/05/25 00:21:54;;;;;;;6.22;4.75;;;;;;;;;;4955656;28;20042;-74
2022/05/25 00:24:20;;;;;;;6.97;5.28;;;;;;;;;;4970229;28;20031;-75
2022/05/25 00:26:46;;;;;;;11.80;5.18;;;;;;;;;;4966402;28;20109;-75
2022/05/25 00:29:14;;;;;;;8.05;4.50;;;;;;;;;;4955966;28;20195;-75
2022/05/25 00:31:40;;;;;;;7.30;5.05;;;;;;;;;;4966385;28;20023;-75
2022/05/25 00:34:07;;;;;;;8.30;5.60;;;;;;;;;;4964840;28;20043;-75
2022/05/25 00:36:33;;;;;;;7.10;4.75;;;;;;;;;;4971785;28;20117;-74
2022/05/25 00:38:59;;;;;;;10.98;4.95;;;;;;;;;;4966625;28;20043;-74
2022/05/25 00:41:28;;;;;;;7.82;5.47;;;;;;;;;;4966323;28;20103;-74
2022/05/25 00:43:54;;;;;;;7.80;5.45;;;;;;;;;;4968712;28;20113;-75
2022/05/25 00:46:21;;;;;;;7.15;5.60;;;;;;;;;;4971341;28;20174;-75
2022/05/25 00:48:54;;;;;;;7.43;5.35;;;;;;;;;;4968257;28;20502;-75
2022/05/25 00:51:28;;;;;;;11.32;5.68;;;;;;;;;;4975235;28;20039;-75
2022/05/25 00:53:58;;;;;;;9.52;5.72;;;;;;;;;;4969228;28;20475;-75
2022/05/25 00:56:25;;;;;;;8.32;5.63;;;;;;;;;;4969472;28;20045;-75
2022/05/25 00:58:58;;;;;;;11.38;5.57;;;;;;;;;;4978105;28;20513;-74
2022/05/25 01:01:25;;;;;;;7.72;6.35;;;;;;;;;;4967286;28;20105;-75
2022/05/25 01:03:51;;;;;;;6.70;5.65;;;;;;;;;;4972400;28;20050;-75
2022/05/25 01:06:38;;;;;;;7.80;6.13;;;9.90;99.90;;;;;;4970714;28;20059;-75
2022/05/25 01:09:20;;;;;;;11.15;7.05;;;;;;;;;;4965082;28;20047;-75
2022/05/25 01:12:03;;;;;;;7.53;5.80;;;;;;;;;;4959175;28;20498;-75
2022/05/25 01:15:01;;;;;;;7.38;6.68;;;9.80;99.90;;;;;;4953143;29;20383;-75
2022/05/25 01:17:27;;;;;;;7.93;6.80;;;;;;;;;;4967789;28;20077;-75
2022/05/25 01:19:53;;;;;;;10.40;7.53;;;;;;;;;;4963095;28;20436;-75
2022/05/25 01:22:28;;;;;;;12.85;7.75;;;;;;;;;;4972984;28;20037;-75
2022/05/25 01:25:09;;;;;;;13.88;7.78;;;;;;;;;;4983690;28;20038;-75
2022/05/25 01:27:39;;;;;;;9.68;7.57;;;;;;;;;;4984867;28;20031;-75
2022/05/25 01:30:18;;;;;;;9.38;7.57;;;;;;;;;;4951120;28;20074;-75
2022/05/25 01:32:51;;;;;;;10.30;7.60;;;;;;;;;;4958485;28;20057;-74
2022/05/25 01:35:29;;;;;;;11.90;8.27;;;;;;;;;;4973904;28;20031;-75
2022/05/25 01:37:58;;;;;;;9.48;7.70;;;;;;;;;;4964761;28;20035;-74
2022/05/25 01:40:26;;;;;;;10.57;7.28;;;;;;;;;;4974737;28;20030;-74
2022/05/25 01:42:58;;;;;;;9.75;8.15;;;;;;;;;;4980238;28;20045;-74
2022/05/25 01:45:29;;;;;;;19.67;8.52;;;;;;;;;;4971849;28;20035;-74
2022/05/25 01:47:56;;;;;;;13.90;8.85;;;;;;;;;;4972908;28;20026;-74
2022/05/25 01:50:29;;;;;;;13.50;7.53;;;;;;;;;;4974824;28;20168;-74
2022/05/25 01:52:57;;;;;;;10.23;7.65;;;;;;;;;;4973931;28;20030;-74
2022/05/25 01:55:32;;;;;;;11.82;9.73;;;;;;;;;;4984827;28;20102;-73
2022/05/25 01:58:00;;;;;;;10.88;8.38;;;;;;;;;;4970184;28;20035;-74
2022/05/25 02:00:32;;;;;;;10.57;7.90;;;;;;;;;;4975857;28;20425;-73
2022/05/25 02:05:49;;;;;;;10.40;8.75;;;;;;;;;;4972789;28;20045;-74
2022/05/25 02:08:41;;;;;;;12.13;8.88;;;;;;;;;;4970666;28;20470;-74
2022/05/25 02:11:17;;;;;;;11.23;9.00;;;;;;;;;;4977643;28;20466;-74
2022/05/25 02:13:56;;;;;;;14.98;9.20;;;;;;;;;;4976759;28;20059;-74
2022/05/25 02:16:25;;;;;;;12.02;8.50;;;;;;;;;;4975882;28;20097;-74
2022/05/25 02:18:51;;;;;;;13.27;9.18;;;;;;;;;;4972690;28;20486;-74
2022/05/25 02:21:46;;;;;;;11.82;8.50;;;;;;;;;;4974612;28;20037;-74
2022/05/25 02:24:20;;;;;;;13.13;9.32;;;;;;;;;;4953777;28;20092;-75
2022/05/25 02:26:49;;;;;;;9.88;8.88;;;;;;;;;;4973772;28;20030;-74
2022/05/25 02:29:24;;;;;;;15.80;9.43;;;;;;;;;;4965969;28;20042;-74
2022/05/25 02:31:54;;;;;;;12.45;9.00;;;;;;;;;;4969707;28;20030;-74
2022/05/25 02:34:21;;;;;;;10.32;8.90;;;;;;;;;;4971019;28;20029;-75
2022/05/25 02:36:48;;;;;;;12.95;9.77;;;;;;;;;;4973809;28;20414;-74
2022/05/25 02:39:14;;;;;;;15.23;10.13;;;;;;;;;;4972619;28;20060;-75
2022/05/25 02:41:51;;;;;;;15.85;11.00;;;;;;;;;;4965936;28;20494;-74
2022/05/25 02:44:18;;;;;;;14.60;10.05;;;;;;;;;;4974152;28;20065;-75
2022/05/25 02:46:44;;;;;;;15.25;9.95;;;;;;;;;;4969214;28;20031;-75
2022/05/25 02:49:10;;;;;;;14.20;9.48;;;;;;;;;;4971893;28;20118;-75
2022/05/25 02:51:37;;;;;;;14.65;10.63;;;;;;;;;;4968174;28;20446;-74
2022/05/25 02:54:03;;;;;;;18.83;10.13;;;;;;;;;;4970232;28;20038;-75
2022/05/25 02:56:29;;;;;;;16.00;9.90;;;;;;;;;;4955400;29;20035;-75
2022/05/25 02:58:55;;;;;;;14.82;10.07;;;;;;;;;;4946292;28;20050;-75
2022/05/25 03:01:21;;;;;;;12.23;9.57;;;;;;;;;;4968835;28;20545;-75
2022/05/25 03:03:47;;;;;;;15.40;10.45;;;;;;;;;;4973842;28;20065;-75
2022/05/25 03:06:13;;;;;;;14.80;10.70;;;;;;;;;;4971275;28;20050;-75
2022/05/25 03:08:41;;;;;;;17.58;10.65;;;;;;;;;;4972352;28;20058;-75
2022/05/25 03:11:07;;;;;;;17.35;11.25;;;;;;;;;;4972834;28;20073;-75
2022/05/25 03:13:35;;;;;;;16.75;10.75;;;;;;;;;;4973972;28;20143;-75
2022/05/25 03:16:01;;;;;;;13.68;11.75;;;;;;;;;;4970906;28;20061;-75
2022/05/25 03:18:27;;;;;;;16.88;11.77;;;;;;;;;;4973342;28;20038;-75
2022/05/25 03:20:53;;;;;;;18.00;12.02;;;;;;;;;;4972572;28;20031;-75
2022/05/25 03:23:19;;;;;;;17.58;13.95;;;;;;;;;;4974629;28;20045;-75
2022/05/25 03:25:45;;;;;;;15.38;12.48;;;;;;;;;;4971513;28;20035;-75
2022/05/25 03:28:11;;;;;;;18.45;13.27;;;;;;;;;;4972702;28;20046;-75
2022/05/25 03:30:38;;;;;;;22.65;14.57;;;;;;;;;;4971778;28;20035;-74
2022/05/25 03:33:04;;;;;;;22.27;13.70;;;;;;;;;;4973218;28;20054;-74
2022/05/25 03:35:30;;;;;;;17.73;13.15;;;;;;;;;;4969259;28;20030;-74
2022/05/25 03:37:58;;;;;;;19.30;13.55;;;;;;;;;;4973316;28;20420;-74
2022/05/25 03:40:25;;;;;;;24.00;14.13;;;;;;;;;;4971921;28;20482;-75
2022/05/25 03:42:51;;;;;;;21.17;14.65;;;;;;;;;;4972322;28;20456;-74
2022/05/25 03:45:17;;;;;;;23.67;15.25;;;;;;;;;;4972387;28;20114;-74
2022/05/25 03:47:43;;;;;;;21.13;15.27;;;;;;;;;;4967941;28;20154;-74
2022/05/25 03:50:10;;;;;;;19.30;14.57;;;;;;;;;;4969027;28;20078;-74
2022/05/25 03:52:36;;;;;;;23.40;16.00;;;;;;;;;;4954886;28;20386;-74
2022/05/25 03:55:02;;;;;;;20.23;15.75;;;;;;;;;;4950295;28;20037;-74
2022/05/25 03:57:28;;;;;;;21.17;14.98;;;;;;;;;;4971750;28;20043;-74
2022/05/25 03:59:54;;;;;;;22.38;14.85;;;;;;;;;;4972638;28;20037;-74
2022/05/25 04:02:20;;;;;;;20.80;14.80;;;;;;;;;;4971428;28;20475;-74
2022/05/25 04:04:46;;;;;;;27.98;16.58;;;;;;;;;;4971087;28;20029;-74
2022/05/25 04:07:12;;;;;;;21.90;15.82;;;;;;;;;;4969637;28;20063;-74
2022/05/25 04:09:38;;;;;;;20.00;15.40;;;;;;;;;;4971978;28;20038;-74
2022/05/25 04:12:05;;;;;;;19.42;15.55;;;;;;;;;;4968793;28;20089;-74
2022/05/25 04:14:31;;;;;;;20.38;16.40;;;;;;;;;;4969429;28;20039;-72
2022/05/25 04:16:57;;;;;;;25.33;17.20;;;;;;;;;;4967097;28;20041;-71
2022/05/25 04:19:23;;;;;;;24.33;16.60;;;;;;;;;;4964903;28;20043;-72
2022/05/25 04:21:49;;;;;;;23.73;15.43;;;;;;;;;;4970884;28;20039;-72
2022/05/25 04:24:16;;;;;;;26.52;17.08;;;;;;;;;;4965367;28;20062;-71
2022/05/25 04:26:42;;;;;;;22.80;16.17;;;;;;;;;;4969224;28;20042;-79
2022/05/25 04:29:08;;;;;;;26.08;16.55;;;;;;;;;;4969806;28;20554;-71
2022/05/25 04:31:34;;;;;;;26.20;16.65;;;;;;;;;;4967071;28;20039;-70
2022/05/25 04:34:00;;;;;;;27.67;18.02;;;;;;;;;;4965450;28;20057;-75
2022/05/25 04:36:26;;;;;;;20.77;15.68;;;;;;;;;;4949423;28;20744;-72
2022/05/25 04:38:52;;;;;;;19.40;15.00;;;;;;;;;;4954979;28;20479;-72
2022/05/25 04:41:18;;;;;;;24.17;15.90;;;;;;;;;;4970746;28;20035;-71
2022/05/25 04:43:44;;;;;;;26.73;15.02;;;;;;;;;;4971478;28;20442;-71
2022/05/25 04:46:11;;;;;;;26.67;16.08;;;;;;;;;;4969029;28;20114;-71
2022/05/25 04:48:37;;;;;;;22.30;15.50;;;;;;;;;;4971235;28;20043;-71
2022/05/25 04:51:04;;;;;;;26.98;15.55;;;;;;;;;;4967127;28;20113;-71
2022/05/25 04:53:30;;;;;;;26.42;14.35;;;;;;;;;;4970102;28;20065;-72
2022/05/25 04:58:46;;;;;;;24.75;16.45;;;;;;;;;;4966879;28;20054;-71
2022/05/25 05:01:13;;;;;;;23.38;14.70;;;;;;;;;;4968089;28;20034;-71
2022/05/25 05:03:39;;;;;;;21.38;14.70;;;;;;;;;;4967717;28;20031;-72
2022/05/25 05:06:06;;;;;;;22.90;16.20;;;;;;;;;;4971678;28;20023;-71
2022/05/25 05:08:32;;;;;;;29.17;15.35;;;;;;;;;;4968353;28;20063;-72
2022/05/25 05:11:05;;;;;;;21.83;14.35;;;;;;;;;;4966428;28;20101;-71
2022/05/25 05:13:31;;;;;;;25.10;15.38;;;;;;;;;;4967477;28;20046;-72
2022/05/25 05:16:02;;;;;;;29.45;15.82;;;;;;;;;;4973343;28;20035;-72
2022/05/25 05:18:28;;;;;;;20.85;14.15;;;;;;;;;;4974295;28;20134;-77
2022/05/25 05:20:54;;;;;;;20.10;13.57;;;;;;;;;;4970993;28;20558;-75
2022/05/25 05:23:20;;;;;;;17.83;13.65;;;;;;;;;;4972177;28;20115;-75
2022/05/25 05:25:46;;;;;;;18.17;12.88;;;;;;;;;;4975709;28;20471;-75
2022/05/25 05:28:15;;;;;;;20.65;13.15;;;;;;;;;;4971138;28;20047;-75
2022/05/25 05:30:49;;;;;;;16.83;12.68;;;;;;;;;;4971311;28;20579;-75
2022/05/25 05:33:15;;;;;;;24.35;12.88;;;;;;;;;;4969928;28;20478;-75
2022/05/25 05:35:42;;;;;;;18.75;11.77;;;;;;;;;;4966072;28;20084;-75
2022/05/25 05:38:09;;;;;;;19.75;12.45;;;;;;;;;;4975173;28;20070;-75
2022/05/25 05:40:35;;;;;;;17.80;12.73;;;;;;;;;;4968893;28;20049;-75
2022/05/25 05:43:02;;;;;;;25.25;13.10;;;;;;;;;;4974533;28;20042;-75
2022/05/25 05:45:30;;;;;;;24.60;12.98;;;;;;;;;;4972613;28;20034;-75
2022/05/25 05:48:01;;;;;;;27.65;11.20;;;;;;;;;;4974473;28;20493;-76
2022/05/25 05:50:28;;;;;;;21.30;12.38;;;;;;;;;;4969646;28;20030;-72
2022/05/25 05:52:54;;;;;;;30.08;14.02;;;;;;;;;;4955916;28;20039;-74
2022/05/25 05:55:20;;;;;;;37.35;15.63;;;;;;;;;;4970108;28;20030;-74
2022/05/25 05:57:46;;;;;;;23.75;11.85;;;;;;;;;;4976346;28;20042;-74
2022/05/25 06:00:15;;;;;;;16.75;11.23;;;;;;;;;;4974005;28;20042;-73
2022/05/25 06:02:41;;;;;;;20.75;11.73;;;;;;;;;;4971120;28;20037;-74
2022/05/25 06:05:07;;;;;;;18.42;11.45;;;;;;;;;;4972473;28;20399;-74
2022/05/25 06:07:33;;;;;;;21.50;10.90;;;;;;;;;;4973872;28;20467;-74
2022/05/25 06:09:59;;;;;;;27.33;10.70;;;;;;;;;;4972960;28;20034;-74
2022/05/25 06:12:27;;;;;;;21.73;10.13;;;;;;;;;;4965896;28;20040;-74
2022/05/25 06:14:53;;;;;;;21.80;10.10;;;;;;;;;;4953257;28;20402;-74
2022/05/25 06:20:04;;;;;;;19.80;9.95;;;;;;;;;;4971629;28;20173;-75
2022/05/25 06:22:32;;;;;;;15.45;9.80;;;;;;;;;;4972944;28;20494;-75
2022/05/25 06:24:58;;;;;;;37.03;20.50;;;;;;;;;;4968519;28;20030;-73
2022/05/25 06:27:24;;;;;;;12.07;7.43;;;;;;;;;;4971363;28;20030;-73
2022/05/25 06:29:51;;;;;;;10.50;7.90;;;;;;;;;;4973912;28;20048;-73
2022/05/25 06:32:19;;;;;;;9.85;6.35;;;;;;;;;;4974417;28;20062;-75
2022/05/25 06:34:48;;;;;;;8.63;5.30;;;;;;;;;;4969390;28;20031;-74
2022/05/25 06:37:18;;;;;;;9.63;5.75;;;;;;;;;;4966771;28;20034;-74
2022/05/25 06:39:44;;;;;;;8.65;5.85;;;;;;;;;;4965215;28;20046;-74
2022/05/25 06:42:11;;;;;;;8.70;5.32;;;;;;;;;;4967407;28;20105;-74
2022/05/25 06:44:37;;;;;;;12.60;5.80;;;;;;;;;;4957344;28;20015;-74
2022/05/25 06:47:03;;;;;;;9.25;5.82;;;;;;;;;;4972124;28;20042;-74
2022/05/25 06:49:29;;;;;;;10.70;5.15;;;;;;;;;;4969762;28;20039;-74
2022/05/25 06:51:56;;;;;;;10.35;5.72;;;;;;;;;;4971353;28;20034;-75
2022/05/25 06:54:22;;;;;;;15.77;5.97;;;;;;;;;;4974029;28;20030;-74
2022/05/25 06:56:48;;;;;;;10.15;6.68;;;;;;;;;;4972382;28;20037;-74
2022/05/25 06:59:14;;;;;;;14.75;6.22;;;;;;;;;;4972345;28;20031;-73
2022/05/25 07:01:41;;;;;;;17.88;7.43;;;;;;;;;;4970851;28;20494;-74
2022/05/25 07:04:08;;;;;;;9.85;6.57;;;;;;;;;;4972436;28;20352;-74
2022/05/25 07:06:37;;;;;;;8.00;5.82;;;;;;;;;;4971855;28;20030;-75
2022/05/25 07:09:04;;;;;;;9.10;6.07;;;;;;;;;;4972140;28;20138;-75
2022/05/25 07:11:30;;;;;;;11.82;6.80;;;;;;;;;;4950594;28;20550;-75
2022/05/25 07:13:57;;;;;;;13.95;7.03;;;;;;;;;;4972652;28;20142;-75
2022/05/25 07:16:23;;;;;;;11.50;7.07;;;;;;;;;;4972299;28;20058;-74
2022/05/25 07:18:50;;;;;;;13.77;6.53;;;;;;;;;;4970033;28;20034;-74
2022/05/25 07:21:18;;;;;;;10.13;7.18;;;;;;;;;;4970891;28;20034;-74
2022/05/25 07:23:45;;;;;;;12.48;6.15;;;;;;;;;;4956652;28;20031;-74
2022/05/25 07:26:11;;;;;;;11.23;5.43;;;;;;;;;;4959079;28;20419;-75
2022/05/25 07:28:38;;;;;;;10.40;5.20;;;;;;;;;;4980731;28;20069;-75
2022/05/25 07:31:06;;;;;;;9.30;5.65;;;;;;;;;;4967254;28;20041;-75
2022/05/25 07:33:33;;;;;;;10.90;6.25;;;;;;;;;;4966692;28;20050;-74
2022/05/25 07:35:59;;;;;;;8.48;5.20;;;;;;;;;;4972783;28;20037;-74
2022/05/25 07:38:27;;;;;;;7.38;4.72;;;;;;;;;;4973916;28;20438;-74
2022/05/25 07:40:53;;;;;;;10.13;4.68;;;;;;;;;;4971870;28;20026;-74
2022/05/25 07:43:20;;;;;;;8.40;4.60;;;;;;;;;;4971950;28;20045;-75
2022/05/25 07:45:46;;;;;;;8.50;4.63;;;;;;;;;;4973051;28;20034;-75
2022/05/25 07:48:13;;;;;;;9.25;4.60;;;;;;;;;;4968241;28;20677;-75
2022/05/25 07:50:39;;;;;;;6.65;4.00;;;;;;;;;;4972529;28;20038;-76
2022/05/25 07:53:55;;;;;;;9.90;4.30;;;;;;;;;;4967864;28;20032;-76
2022/05/25 07:55:55;;;;;;;6.90;3.97;;;;;;;;;;4966620;28;20047;-75
2022/05/25 07:58:21;;;;;;;6.15;3.38;;;;;;;;;;4972129;28;20497;-75
2022/05/25 08:00:48;;;;;;;4.95;2.70;;;;;;;;;;4952822;28;20134;-75
2022/05/25 08:05:59;;;;;;;4.18;2.00;;;;;;;;;;4971860;28;20505;-75
2022/05/25 08:08:26;;;;;;;9.07;2.05;;;;;;;;;;4972586;28;20046;-75
2022/05/25 08:10:57;;;;;;;4.85;2.47;;;;;;;;;;4970484;28;20034;-75
2022/05/25 08:13:24;;;;;;;11.18;2.25;;;;;;;;;;4972817;28;20171;-75
2022/05/25 08:15:50;;;;;;;6.60;2.55;;;;;;;;;;4969032;28;20427;-75
2022/05/25 08:18:17;;;;;;;4.93;2.10;;;21.50;99.90;;;;;;4969788;28;20039;-79
2022/05/25 08:20:44;;;;;;;6.53;2.47;;;;;;;;;;4964975;28;20052;-77
2022/05/25 08:23:11;;;;;;;7.57;2.22;;;;;;;;;;4970699;28;20030;-77
2022/05/25 08:25:37;;;;;;;8.40;2.17;;;;;;;;;;4972179;28;20058;-77
2022/05/25 08:28:04;;;;;;;4.85;1.98;;;20.50;99.90;;;;;;4967298;28;20125;-77
2022/05/25 08:30:32;;;;;;;7.07;1.90;;;;;;;;;;4973273;28;20046;-77
2022/05/25 08:32:58;;;;;;;3.97;2.53;;;;;;;;;;4969708;28;20383;-77
2022/05/25 08:35:24;;;;;;;7.55;2.38;;;;;;;;;;4965773;28;20101;-77
2022/05/25 08:37:50;;;;;;;5.50;2.10;;;;;;;;;;4973416;28;20085;-76
2022/05/25 08:40:19;;;;;;;6.78;1.60;;;;;;;;;;4960301;28;20030;-75
2022/05/25 08:43:04;;;;;;;15.05;8.57;;;;;;;;;;4964241;28;20562;-71
2022/05/25 08:45:36;;;;;;;6.13;2.88;;;;;;;;;;4950984;28;20034;-71
2022/05/25 08:48:03;;;;;;;4.57;2.20;;;;;;;;;;4967646;28;20427;-74
2022/05/25 08:50:30;;;;;;;7.97;2.17;;;;;;;;;;4969906;28;20031;-74
2022/05/25 08:52:58;;;;;;;5.18;1.90;;;18.30;99.90;;;;;;4972076;28;20038;-76
2022/05/25 08:55:39;;;;;;;5.15;2.17;;;18.60;99.90;;;;;;4966463;28;20094;-73
2022/05/25 08:58:07;;;;;;;7.38;2.10;;;;;;;;;;4950241;28;20054;-74
2022/05/25 09:00:34;;;;;;;4.65;2.15;;;;;;;;;;4970871;28;20045;-74
2022/05/25 09:03:12;;;;;;;8.30;1.92;;;;;;;;;;4970119;28;20027;-74
2022/05/25 09:05:38;;;;;;;5.35;2.75;;;;;;;;;;4972324;28;20097;-74
2022/05/25 09:08:29;;;;;;;6.25;2.70;;;19.70;99.90;;;;;;4971760;28;20062;-74
2022/05/25 09:11:06;;;;;;;5.18;2.45;;;19.70;99.90;;;;;;4968303;28;20082;-74
2022/05/25 09:13:59;;;;;;;6.45;2.88;;;;;;;;;;4952654;28;20038;-74
2022/05/25 09:16:26;;;;;;;4.82;2.92;;;;;;;;;;4950739;28;20041;-74
2022/05/25 09:19:19;;;;;;;8.13;3.47;;;19.30;99.90;;;;;;4970608;28;20035;-73
2022/05/25 09:21:45;;;;;;;8.93;3.45;;;;;;;;;;4976915;28;20031;-73
2022/05/25 09:24:15;;;;;;;6.28;3.88;;;;;;;;;;4966473;28;20041;-74
2022/05/25 09:26:42;;;;;;;6.78;3.47;;;;;;;;;;4964837;28;20081;-74
2022/05/25 09:29:09;;;;;;;7.65;3.75;;;;;;;;;;4970645;28;20033;-74
2022/05/25 09:31:41;;;;;;;5.15;3.15;;;;;;;;;;4953606;28;21856;-74
2022/05/25 09:34:10;;;;;;;7.90;3.05;;;;;;;;;;4976788;28;20109;-74
2022/05/25 09:36:45;;;;;;;10.40;4.35;;;;;;;;;;4970425;28;20119;-72
2022/05/25 09:39:23;;;;;;;7.53;3.15;;;;;;;;;;4972164;28;20105;-73
2022/05/25 09:41:53;;;;;;;3.80;2.10;;;;;;;;;;4966500;28;20097;-76
2022/05/25 09:44:19;;;;;;;5.30;2.17;;;;;;;;;;4971177;28;20085;-77
2022/05/25 09:46:59;;;;;;;6.22;2.58;;;;;;;;;;4970016;28;20031;-77
2022/05/25 09:49:34;;;;;;;8.38;2.45;;;;;;;;;;4969027;28;20530;-76
2022/05/25 09:52:06;;;;;;;3.85;2.70;;;;;;;;;;4975963;28;20054;-76
2022/05/25 09:54:40;;;;;;;4.10;2.97;;;;;;;;;;4950253;28;20478;-76
2022/05/25 09:57:08;;;;;;;5.15;3.17;;;;;;;;;;4971208;28;20027;-75
2022/05/25 09:59:36;;;;;;;6.00;3.95;;;;;;;;;;4976677;28;20077;-75
2022/05/25 10:02:08;;;;;;;6.82;4.53;;;;;;;;;;4976825;28;20114;-76
2022/05/25 10:04:51;;;;;;;10.63;4.75;;;18.30;99.90;;;;;;4974874;28;20067;-77
2022/05/25 10:07:22;;;;;;;8.07;5.50;;;;;;;;;;4970042;28;20558;-76
2022/05/25 10:09:50;;;;;;;4.97;4.40;;;;;;;;;;4974976;28;20027;-76
2022/05/25 10:12:32;;;;;;;10.45;4.72;;;;;;;;;;4970372;28;20073;-75
2022/05/25 10:15:06;;;;;;;7.47;4.30;;;;;;;;;;4973987;28;20030;-77
2022/05/25 10:17:44;;;;;;;7.88;4.32;;;19.40;99.90;;;;;;4952502;28;20130;-77
2022/05/25 10:20:19;;;;;;;6.35;3.35;;;;;;;;;;4968321;28;20070;-76
2022/05/25 10:22:46;;;;;;;5.70;3.03;;;;;;;;;;4974492;28;20035;-76
2022/05/25 10:25:31;;;;;;;5.43;2.63;;;;;;;;;;4952330;28;20023;-78
2022/05/25 10:27:59;;;;;;;5.22;3.40;;;;;;;;;;4972319;28;20047;-76
2022/05/25 10:39:23;;;;;;;5.07;3.78;;;;;;;;;;4971887;28;20287;-77
2022/05/25 10:42:01;;;;;;;5.88;3.97;;;;;;;;;;4964337;28;20065;-77
2022/05/25 10:44:31;;;;;;;4.78;3.90;;;;;;;;;;4950952;28;20035;-77
2022/05/25 10:46:58;;;;;;;4.47;3.95;;;;;;;;;;4968924;28;20031;-78
2022/05/25 10:49:37;;;;;;;7.90;4.38;;;;;;;;;;4972149;28;20038;-78
2022/05/25 10:52:07;;;;;;;7.18;4.07;;;;;;;;;;4977541;28;20497;-80
2022/05/25 10:54:46;;;;;;;5.93;3.65;;;;;;;;;;4963668;28;20390;-72
2022/05/25 10:57:21;;;;;;;15.02;5.35;;;;;;;;;;4965981;28;20031;-72
2022/05/25 10:59:50;;;;;;;8.75;4.32;;;;;;;;;;4968422;28;20507;-73
2022/05/25 11:02:29;;;;;;;8.30;4.47;;;19.00;99.90;;;;;;4977905;28;20069;-73
2022/05/25 11:05:10;;;;;;;10.48;4.30;;;;;;;;;;4974242;28;20038;-75
2022/05/25 11:07:39;;;;;;;6.40;3.33;;;;;;;;;;4960029;28;20073;-74
2022/05/25 11:10:17;;;;;;;6.97;4.10;;;;;;;;;;4956146;28;20041;-74
2022/05/25 11:13:04;;;;;;;10.88;3.08;;;;;;;;;;4971831;28;20049;-75
2022/05/25 11:15:30;;;;;;;6.90;3.25;;;;;;;;;;4952551;28;20401;-75
2022/05/25 11:18:11;;;;;;;5.10;2.45;;;;;;;;;;4967212;28;20066;-74
2022/05/25 11:20:52;;;;;;;5.97;2.28;;;;;;;;;;4974277;28;20501;-74
2022/05/25 11:23:35;;;;;;;4.78;1.63;;;;;;;;;;4971471;28;20035;-74
2022/05/25 11:26:01;;;;;;;;;;;;;;;;;;4973653;28;20027;-73
2022/05/25 11:28:45;;;;;;;43.20;25.42;;;20.70;99.30;;;;;;4968295;28;20286;-75
2022/05/25 11:31:11;;;;;;;5.60;0.50;;;;;;;;;;4962111;28;20027;-76
2022/05/25 11:33:44;;;;;;;13.27;0.68;;;20.60;97.80;;;;;;4972550;28;20085;-77
2022/05/25 11:36:31;;;;;;;3.05;0.40;;;21.00;96.30;;;;;;4971617;28;20042;-76
2022/05/25 11:39:12;;;;;;;2.70;0.45;;;;;;;;;;4968289;28;20067;-76
2022/05/25 11:41:57;;;;;;;2.38;0.70;;;;;;;;;;4974335;28;20482;-76
2022/05/25 11:44:43;;;;;;;4.10;0.60;;;;;;;;;;4969623;28;20034;-76
2022/05/25 11:47:24;;;;;;;1.17;0.28;;;;;;;;;;4969979;28;20386;-76
2022/05/25 11:50:13;;;;;;;3.92;0.30;;;;;;;;;;4960285;28;20036;-76
2022/05/25 11:52:58;;;;;;;4.68;0.65;;;;;;;;;;4969216;28;20039;-76
2022/05/25 11:55:27;;;;;;;2.40;0.43;;;20.60;96.50;;;;;;4964519;28;20758;-76
2022/05/25 11:58:06;;;;;;;4.70;0.98;;;;;;;;;;4970908;28;20039;-76
2022/05/25 12:00:41;;;;;;;5.57;0.52;;;;;;;;;;4981802;28;20039;-76
2022/05/25 12:03:07;;;;;;;3.72;0.40;;;;;;;;;;4968540;28;20467;-76
2022/05/25 12:05:41;;;;;;;4.82;0.30;;;;;;;;;;4970879;28;20106;-75
2022/05/25 12:08:13;;;;;;;6.20;0.70;;;;;;;;;;4967266;28;20417;-76
2022/05/25 12:10:40;;;;;;;3.25;0.35;;;;;;;;;;4964097;28;20042;-76
2022/05/25 12:13:33;;;;;;;2.00;0.30;;;;;;;;;;4967859;28;20375;-75
2022/05/25 12:16:03;;;;;;;2.13;0.65;;;;;;;;;;4973132;28;20532;-76
2022/05/25 12:18:49;;;;;;;3.53;0.65;;;;;;;;;;4974698;28;20027;-76
2022/05/25 12:21:40;;;;;;;3.33;0.40;;;20.60;96.20;;;;;;4969035;28;20031;-75
2022/05/25 12:24:22;;;;;;;5.47;0.90;;;20.90;96.10;;;;;;4943078;28;20038;-75
2022/05/25 12:26:48;;;;;;;1.23;0.28;;;;;;;;;;4971857;28;20070;-76
2022/05/25 12:29:15;;;;;;;6.47;0.80;;;;;;;;;;4965226;28;20510;-76
2022/05/25 12:31:42;;;;;;;2.60;0.40;;;;;;;;;;4967970;28;20030;-76
2022/05/25 12:34:18;;;;;;;3.40;0.80;;;21.20;95.40;;;;;;4958137;28;20078;-76
2022/05/25 12:36:44;;;;;;;3.88;0.68;;;;;;;;;;4961802;28;20573;-75
2022/05/25 12:39:10;;;;;;;4.47;0.63;;;;;;;;;;4970734;28;20053;-75
2022/05/25 12:41:38;;;;;;;2.92;0.52;;;;;;;;;;4959239;28;20039;-75
2022/05/25 12:49:55;;;;;;;3.05;0.80;;;;;;;;;;4967288;28;20045;-76
2022/05/25 12:52:27;;;;;;;3.67;0.70;;;;;;;;;;4973254;28;20031;-76
2022/05/25 12:54:59;;;;;;;1.48;0.47;;;;;;;;;;4965531;28;20479;-76
2022/05/25 12:57:37;;;;;;;4.73;0.60;;;;;;;;;;4951570;28;20027;-75
2022/05/25 13:00:15;;;;;;;3.22;0.73;;;;;;;;;;4969911;28;20047;-76
2022/05/25 13:02:41;;;;;;;3.03;0.90;;;;;;;;;;4959999;28;20039;-77
2022/05/25 13:05:08;;;;;;;4.13;0.60;;;;;;;;;;4969940;28;20348;-76
2022/05/25 13:07:46;;;;;;;6.55;0.60;;;19.50;97.70;;;;;;4967475;28;21021;-75
2022/05/25 13:10:32;;;;;;;8.75;1.25;;;;;;;;;;4968291;28;20031;-76
2022/05/25 13:13:26;;;;;;;3.88;0.40;;;19.40;97.20;;;;;;4927903;28;20039;-76
2022/05/25 13:15:52;;;;;;;6.50;0.52;;;;;;;;;;4971544;28;20031;-76
2022/05/25 13:18:36;;;;;;;2.50;0.55;;;;;;;;;;4969730;28;20039;-76
2022/05/25 13:21:03;;;;;;;2.50;0.50;;;;;;;;;;4967743;28;20039;-76
2022/05/25 13:23:47;;;;;;;5.07;0.50;;;;;;;;;;4965386;28;20026;-77
2022/05/25 13:26:13;;;;;;;3.22;0.50;;;;;;;;;;4967504;28;20038;-78
2022/05/25 13:29:04;;;;;;;3.03;0.50;;;19.20;98.30;;;;;;4970480;28;20080;-77
2022/05/25 13:31:30;;;;;;;4.07;0.93;;;;;;;;;;4947422;28;20494;-77
2022/05/25 13:33:58;;;;;;;2.92;0.70;;;;;;;;;;4973628;28;20097;-77
2022/05/25 13:36:26;;;;;;;4.43;0.60;;;19.70;98.10;;;;;;4974946;28;20031;-78
2022/05/25 13:39:20;;;;;;;2.97;0.45;;;19.40;97.20;;;;;;4973737;28;20534;-76
2022/05/25 13:41:52;;;;;;;2.75;0.70;;;;;;;;;;4975261;28;20356;-77
2022/05/25 13:44:29;;;;;;;1.95;0.47;;;19.30;98.20;;;;;;4970944;28;20067;-79
2022/05/25 13:46:58;;;;;;;4.07;1.50;;;;;;;;;;4960706;28;20027;-76
2022/05/25 13:49:26;;;;;;;6.07;1.00;;;;;;;;;;4971621;28;20090;-76
2022/05/25 13:52:09;;;;;;;6.80;1.10;;;;;;;;;;4976571;28;20038;-77
2022/05/25 13:54:36;;;;;;;8.65;0.70;;;;;;;;;;4976876;28;20082;-76
2022/05/25 13:57:04;;;;;;;2.08;0.47;;;;;;;;;;4970688;28;20050;-76
2022/05/25 13:59:32;;;;;;;3.08;0.40;;;;;;;;;;4979993;28;20550;-76
2022/05/25 14:02:17;;;;;;;2.15;0.45;;;;;;;;;;4973391;28;20374;-76
2022/05/25 14:04:44;;;;;;;4.97;0.47;;;;;;;;;;4944002;28;20039;-76
2022/05/25 14:07:10;;;;;;;10.02;0.70;;;;;;;;;;4971235;28;20035;-77
2022/05/25 14:12:22;;;;;;;8.10;1.58;;;;;;;;;;4958290;28;20062;-77
2022/05/25 14:14:52;;;;;;;4.57;0.75;;;;;;;;;;4974437;28;20113;-77
2022/05/25 14:17:24;;;;;;;7.05;0.90;;;;;;;;;;4967167;28;20102;-77
2022/05/25 14:19:51;;;;;;;6.45;0.75;;;;;;;;;;4967059;28;20039;-77
2022/05/25 14:22:19;;;;;;;5.63;0.80;;;;;;;;;;4974374;28;20414;-77
2022/05/25 14:24:47;;;;;;;5.10;0.70;;;;;;;;;;4972266;28;20030;-77
2022/05/25 14:27:13;;;;;;;2.67;0.47;;;;;;;;;;4970114;28;20073;-78
2022/05/25 14:29:40;;;;;;;2.78;0.50;;;19.20;98.50;;;;;;4982144;28;20063;-77
2022/05/25 14:32:24;;;;;;;5.85;0.55;;;;;;;;;;4974528;28;20458;-77
2022/05/25 14:34:51;;;;;;;3.35;0.70;;;;;;;;;;4973865;28;20089;-77
2022/05/25 14:37:18;;;;;;;7.03;0.70;;;;;;;;;;4956004;28;20050;-77
2022/05/25 14:39:45;;;;;;;5.72;0.73;;;;;;;;;;4974050;28;20043;-77
2022/05/25 14:42:19;;;;;;;3.03;0.82;;;;;;;;;;4971515;28;20061;-77
2022/05/25 14:44:54;;;;;;;3.45;0.50;;;;;;;;;;4973544;28;20026;-77
2022/05/25 14:47:35;;;;;;;4.72;0.60;;;19.10;98.90;;;;;;4976843;28;20030;-79
2022/05/25 14:50:17;;;;;;;5.38;0.73;;;;;;;;;;4976259;28;20042;-81
2022/05/25 14:52:45;;;;;;;4.82;1.10;;;;;;;;;;4975334;28;20082;-79
2022/05/25 14:55:15;;;;;;;4.45;0.98;;;;;;;;;;4979534;28;20086;-83
2022/05/25 14:57:42;;;;;;;5.03;0.95;;;;;;;;;;4978426;28;20082;-80
2022/05/25 15:00:08;;;;;;;3.67;0.70;;;;;;;;;;4977535;28;20097;-80
2022/05/25 15:02:37;;;;;;;11.32;0.85;;;;;;;;;;4963343;28;20078;-79
2022/05/25 15:05:22;;;;;;;5.70;0.98;;;;;;;;;;4973871;28;20660;-75
2022/05/25 15:07:53;;;;;;;6.93;1.65;;;;;;;;;;4971142;28;20035;-76
2022/05/25 15:10:18;;;;;;;9.65;1.08;;;;;;;;;;4967975;28;20053;-77
2022/05/25 15:12:45;;;;;;;7.75;1.27;;;;;;;;;;4954278;28;20105;-76
2022/05/25 15:18:30;;;;;;;6.40;1.00;;;;;;;;;;4973364;28;20049;-77